Time;durP1;ratioP1;P1;durP2;ratioP2;P2;SDS_P1;SDS_P2;PMS_P1;PMS_P2;Temp;Humidity;BMP_temperature;BMP_pressure;BME280_temperature;BME280_humidity;BME280_pressure;Samples;Min_cycle;Max_cycle;Signal;HPM_P1;HPM_P2
2023/11/09 00:00:50;;;;;;;6.20;4.60;;;;;;;6.41;100.00;97543.41;110284;1242;69253;-67
2023/11/09 00:03:40;;;;;;;7.30;5.40;;;;;;;6.43;100.00;97544.38;110213;1241;69521;-65
2023/11/09 00:06:12;;;;;;;6.60;4.60;;;;;;;6.47;100.00;97544.86;110256;1240;60509;-65
2023/11/09 00:08:43;;;;;;;;;;;;;;;6.48;100.00;97550.48;110320;1240;60867;-65
2023/11/09 00:11:15;;;;;;;8.10;6.00;;;;;;;6.49;100.00;97548.35;110274;1240;72294;-66
2023/11/09 00:13:46;;;;;;;7.50;5.60;;;;;;;6.50;100.00;97550.01;110297;1241;68463;-65
2023/11/09 00:16:16;;;;;;;6.10;5.40;;;;;;;6.52;100.00;97556.86;110253;1240;69088;-65
2023/11/09 00:18:48;;;;;;;7.30;5.70;;;;;;;6.50;100.00;97558.87;110281;1242;60550;-65
2023/11/09 00:21:17;;;;;;;6.10;5.00;;;;;;;6.49;100.00;97558.59;110283;1241;60554;-65
2023/11/09 00:23:47;;;;;;;5.40;4.60;;;;;;;6.48;100.00;97556.08;110298;1240;72652;-65
2023/11/09 00:26:17;;;;;;;5.50;4.70;;;;;;;6.49;100.00;97556.31;110304;1242;69243;-65
2023/11/09 00:28:50;;;;;;;5.20;4.20;;;;;;;6.51;100.00;97558.98;110250;1242;68519;-66
2023/11/09 00:31:22;;;;;;;5.60;3.90;;;;;;;6.56;100.00;97557.67;110233;1242;60553;-66
2023/11/09 00:33:53;;;;;;;4.20;3.70;;;;;;;6.61;100.00;97555.13;110210;1244;60537;-66
2023/11/09 00:36:23;;;;;;;4.60;3.60;;;;;;;6.62;100.00;97554.38;110108;1240;72872;-66
2023/11/09 00:38:53;;;;;;;5.50;3.20;;;;;;;6.66;100.00;97549.70;110249;1241;69264;-65
2023/11/09 00:41:23;;;;;;;4.50;3.20;;;;;;;6.67;100.00;97553.61;110230;1248;68518;-65
2023/11/09 00:43:55;;;;;;;4.80;3.10;;;;;;;6.70;100.00;97554.14;110233;1242;60476;-65
2023/11/09 00:46:29;;;;;;;8.00;3.30;;;;;;;6.66;100.00;97556.94;110290;1241;60503;-65
2023/11/09 00:49:03;;;;;;;3.80;3.40;;;;;;;6.59;100.00;97554.03;110233;1241;72627;-65
2023/11/09 00:51:33;;;;;;;3.60;3.00;;;;;;;6.63;100.00;97553.48;110140;1243;69269;-66
2023/11/09 00:54:03;;;;;;;4.00;3.10;;;;;;;6.56;100.00;97552.29;110189;1240;68418;-67
2023/11/09 00:56:38;;;;;;;6.10;3.30;;;;;;;6.51;100.00;97551.02;110220;1240;60483;-65
2023/11/09 00:59:11;;;;;;;4.50;3.40;;;;;;;6.44;100.00;97551.25;110235;1240;60489;-65
2023/11/09 01:01:43;;;;;;;3.60;3.00;;;;;;;6.41;100.00;97553.48;110190;1240;71606;-65
2023/11/09 01:04:13;;;;;;;5.30;3.30;;;;;;;6.40;100.00;97556.98;110215;1244;68291;-65
2023/11/09 01:06:44;;;;;;;3.40;2.80;;;;;;;6.37;100.00;97555.92;110190;1242;68342;-65
2023/11/09 01:09:17;;;;;;;3.30;2.90;;;;;;;6.30;100.00;97558.56;110238;1240;60593;-65
2023/11/09 01:11:49;;;;;;;3.80;2.90;;;;;;;6.26;100.00;97559.11;110328;1244;60489;-67
2023/11/09 01:14:20;;;;;;;2.70;2.50;;;;;;;6.24;100.00;97563.91;110302;1244;72259;-67
2023/11/09 01:16:50;;;;;;;4.50;2.90;;;;;;;6.20;100.00;97563.09;110131;1240;68565;-67
2023/11/09 01:19:21;;;;;;;;;;;;;;;6.12;100.00;97565.02;110259;1244;69117;-64
2023/11/09 01:21:51;;;;;;;3.50;2.40;;;;;;;6.07;100.00;97560.79;110216;1240;60496;-67
2023/11/09 01:24:21;;;;;;;;;;;;;;;6.02;100.00;97566.10;110300;1240;60535;-65
2023/11/09 01:26:51;;;;;;;4.20;2.70;;;;;;;5.92;100.00;97567.45;110298;1241;72169;-65
2023/11/09 01:29:22;;;;;;;3.90;2.60;;;;;;;5.85;100.00;97566.74;110245;1241;69270;-67
2023/11/09 01:31:55;;;;;;;2.20;1.80;;;;;;;5.79;100.00;97570.02;110235;1243;69332;-67
2023/11/09 01:34:27;;;;;;;3.70;2.30;;;;;;;5.72;100.00;97572.63;110263;1240;60455;-67
2023/11/09 01:36:58;;;;;;;4.70;2.60;;;;;;;5.69;100.00;97572.97;110256;1243;60497;-65
2023/11/09 01:39:30;;;;;;;3.70;2.50;;;;;;;5.66;100.00;97575.52;110256;1242;71489;-66
2023/11/09 01:42:00;;;;;;;3.20;2.70;;;;;;;5.62;100.00;97577.23;110263;1240;68476;-65
2023/11/09 01:44:33;;;;;;;4.10;2.50;;;;;;;5.58;100.00;97580.04;110301;1240;69302;-68
2023/11/09 01:47:03;;;;;;;2.70;2.00;;;;;;;5.55;100.00;97579.73;110282;1240;60532;-67
2023/11/09 01:49:35;;;;;;;4.00;2.70;;;;;;;5.48;100.00;97582.48;110253;1241;60470;-65
2023/11/09 01:52:06;;;;;;;2.70;2.30;;;;;;;5.41;100.00;97588.36;110319;1242;72506;-67
2023/11/09 01:54:38;;;;;;;3.40;2.30;;;;;;;5.33;100.00;97582.33;110297;1242;68330;-65
2023/11/09 01:57:18;;;;;;;3.00;2.00;;;;;;;5.24;100.00;97587.61;110220;1241;68579;-65
2023/11/09 01:59:53;;;;;;;2.90;2.30;;;;;;;5.16;100.00;97592.17;110288;1241;60474;-65
2023/11/09 02:02:25;;;;;;;3.20;2.50;;;;;;;5.12;100.00;97594.76;110263;1240;60560;-65
2023/11/09 02:04:57;;;;;;;3.30;2.40;;;;;;;5.01;100.00;97593.38;110280;1240;72076;-66
2023/11/09 02:07:29;;;;;;;5.50;4.20;;;;;;;4.93;100.00;97592.05;110266;1241;69765;-65
2023/11/09 02:10:03;;;;;;;4.50;3.10;;;;;;;4.94;100.00;97591.30;110291;1247;69295;-67
2023/11/09 02:12:35;;;;;;;3.50;2.60;;;;;;;4.95;100.00;97593.86;110140;1243;60949;-66
2023/11/09 02:15:05;;;;;;;3.00;2.60;;;;;;;4.89;100.00;97596.73;110305;1241;60540;-66
2023/11/09 02:17:37;;;;;;;4.20;2.60;;;;;;;4.83;100.00;97599.60;110114;1243;71608;-67
2023/11/09 02:20:06;;;;;;;;;;;;;;;4.75;100.00;97601.33;110310;1242;69251;-65
2023/11/09 02:22:39;;;;;;;3.10;2.30;;;;;;;4.66;100.00;97598.67;110257;1240;68553;-66
2023/11/09 02:25:10;;;;;;;2.70;2.10;;;;;;;4.57;100.00;97603.03;110102;1240;60475;-66
2023/11/09 02:27:41;;;;;;;3.20;2.10;;;;;;;4.47;100.00;97602.42;110152;1241;60499;-66
2023/11/09 02:30:11;;;;;;;;;;;;;;;4.38;100.00;97609.41;110130;1244;71514;-66
2023/11/09 02:32:42;;;;;;;3.80;2.60;;;;;;;4.28;100.00;97605.90;110218;1243;68602;-66
2023/11/09 02:35:12;;;;;;;4.30;2.80;;;;;;;4.19;100.00;97610.11;110143;1240;69146;-65
2023/11/09 02:37:43;;;;;;;3.30;2.40;;;;;;;4.11;100.00;97608.55;110288;1240;60561;-63
2023/11/09 02:40:14;;;;;;;5.50;2.60;;;;;;;4.02;100.00;97607.38;110263;1240;61003;-67
2023/11/09 02:42:48;;;;;;;4.10;2.90;;;;;;;3.91;100.00;97611.12;110258;1241;72247;-67
2023/11/09 02:45:18;;;;;;;3.90;3.40;;;;;;;3.80;100.00;97615.58;110295;1240;69220;-67
2023/11/09 02:47:47;;;;;;;5.10;3.60;;;;;;;3.67;100.00;97616.48;110238;1243;68349;-67
2023/11/09 02:50:18;;;;;;;5.30;3.40;;;;;;;3.54;100.00;97620.41;110240;1241;60503;-67
2023/11/09 02:52:48;;;;;;;4.20;3.50;;;;;;;3.44;100.00;97623.80;110101;1243;60476;-67
2023/11/09 02:55:20;;;;;;;5.20;3.40;;;;;;;3.34;100.00;97627.46;110129;1240;72626;-67
2023/11/09 02:57:51;;;;;;;5.40;3.60;;;;;;;3.25;100.00;97628.67;110187;1244;69215;-67
2023/11/09 03:00:21;;;;;;;3.40;2.70;;;;;;;3.18;100.00;97626.54;110333;1240;69247;-67
2023/11/09 03:02:51;;;;;;;4.20;3.10;;;;;;;3.11;100.00;97627.34;110300;1241;60542;-65
2023/11/09 03:05:22;;;;;;;5.00;3.10;;;;;;;3.04;100.00;97628.98;110313;1242;60502;-65
2023/11/09 03:07:54;;;;;;;4.50;2.90;;;;;;;2.97;100.00;97627.89;110216;1240;72136;-65
2023/11/09 03:10:25;;;;;;;4.30;2.80;;;;;;;2.90;100.00;97631.42;110267;1240;68616;-65
2023/11/09 03:12:55;;;;;;;4.80;3.60;;;;;;;2.83;100.00;97631.36;110235;1240;69322;-65
2023/11/09 03:15:26;;;;;;;4.30;3.10;;;;;;;2.76;100.00;97634.20;110273;1244;60502;-65
2023/11/09 03:17:58;;;;;;;4.60;3.20;;;;;;;2.69;100.00;97633.29;110263;1242;60489;-64
2023/11/09 03:20:29;;;;;;;6.30;4.60;;;;;;;2.62;100.00;97632.34;110281;1240;71249;-65
2023/11/09 03:22:59;;;;;;;5.90;4.20;;;;;;;2.57;100.00;97630.98;110251;1242;68747;-65
2023/11/09 03:25:30;;;;;;;3.90;3.30;;;;;;;2.52;100.00;97631.15;110233;1243;68528;-65
2023/11/09 03:28:00;;;;;;;5.30;4.50;;;;;;;2.48;100.00;97632.14;110230;1242;60887;-64
2023/11/09 03:30:33;;;;;;;7.50;5.30;;;;;;;2.44;100.00;97631.44;110265;1241;60524;-65
2023/11/09 03:33:04;;;;;;;6.70;4.40;;;;;;;2.40;100.00;97632.29;110240;1244;72220;-65
2023/11/09 03:35:36;;;;;;;5.30;3.80;;;;;;;2.37;100.00;97637.23;110305;1243;69087;-66
2023/11/09 03:38:06;;;;;;;6.70;3.60;;;;;;;2.32;100.00;97637.71;110218;1240;69382;-65
2023/11/09 03:40:37;;;;;;;6.10;3.90;;;;;;;2.28;100.00;97637.18;110284;1241;60474;-65
2023/11/09 03:43:08;;;;;;;9.10;5.80;;;;;;;2.24;100.00;97639.91;110271;1244;60435;-64
2023/11/09 03:45:39;;;;;;;7.60;4.90;;;;;;;2.20;100.00;97639.00;110272;1244;72590;-67
2023/11/09 03:48:10;;;;;;;11.10;6.90;;;;;;;2.17;100.00;97639.13;110263;1241;68527;-65
2023/11/09 03:50:42;;;;;;;8.00;5.50;;;;;;;2.16;100.00;97645.88;110268;1240;69260;-65
2023/11/09 03:53:13;;;;;;;6.30;4.50;;;;;;;2.14;100.00;97642.86;110244;1243;60461;-64
2023/11/09 03:55:44;;;;;;;5.60;3.90;;;;;;;2.10;100.00;97642.13;110310;1242;60570;-65
2023/11/09 03:58:14;;;;;;;6.40;4.00;;;;;;;2.06;100.00;97646.55;110253;1242;72398;-65
2023/11/09 04:00:44;;;;;;;7.20;3.80;;;;;;;2.03;100.00;97649.74;110264;1242;69206;-64
2023/11/09 04:03:15;;;;;;;5.00;3.40;;;;;;;2.01;100.00;97651.89;110225;1240;68489;-65
2023/11/09 04:05:46;;;;;;;5.30;3.50;;;;;;;2.02;100.00;97648.25;110271;1241;60579;-65
2023/11/09 04:08:18;;;;;;;8.00;5.60;;;;;;;2.04;100.00;97645.42;110278;1244;60483;-66
2023/11/09 04:10:48;;;;;;;6.80;3.60;;;;;;;2.07;100.00;97644.80;110239;1242;72124;-65
2023/11/09 04:13:18;;;;;;;4.30;3.00;;;;;;;2.09;100.00;97639.61;110300;1242;69757;-67
2023/11/09 04:15:48;;;;;;;6.70;3.70;;;;;;;2.10;100.00;97634.75;110298;1244;69123;-65
2023/11/09 04:18:18;;;;;;;5.00;3.50;;;;;;;2.10;100.00;97635.27;110276;1240;60500;-65
2023/11/09 04:20:49;;;;;;;6.10;3.60;;;;;;;2.09;100.00;97638.75;110267;1240;60537;-66
2023/11/09 04:23:21;;;;;;;7.30;4.00;;;;;;;2.07;100.00;97642.74;110319;1243;72818;-65
2023/11/09 04:25:51;;;;;;;6.00;4.30;;;;;;;2.05;100.00;97645.41;110292;1242;67403;-65
2023/11/09 04:28:21;;;;;;;;;;;;;;;2.02;100.00;97648.60;110290;1240;69623;-65
2023/11/09 04:30:52;;;;;;;8.10;4.80;;;;;;;1.98;100.00;97653.36;110254;1242;60650;-67
2023/11/09 04:33:22;;;;;;;6.20;4.70;;;;;;;1.94;100.00;97653.16;110242;1242;60437;-65
2023/11/09 04:35:55;;;;;;;6.00;4.40;;;;;;;1.93;100.00;97655.09;110290;1240;70469;-65
2023/11/09 04:38:30;;;;;;;8.70;5.60;;;;;;;1.94;100.00;97656.61;110284;1242;68316;-65
2023/11/09 04:41:03;;;;;;;9.30;7.00;;;;;;;1.95;100.00;97657.11;110232;1241;68262;-65
2023/11/09 04:43:33;;;;;;;11.20;7.30;;;;;;;1.94;100.00;97659.89;110234;1240;60471;-66
2023/11/09 04:46:10;;;;;;;9.60;7.00;;;;;;;1.91;100.00;97663.25;110261;1242;60541;-65
2023/11/09 04:48:44;;;;;;;15.00;7.40;;;;;;;1.87;100.00;97662.70;110262;1244;71056;-65
2023/11/09 04:51:22;;;;;;;10.20;6.50;;;;;;;1.83;100.00;97665.05;110313;1243;69810;-66
2023/11/09 04:53:52;;;;;;;13.20;9.00;;;;;;;1.77;100.00;97668.54;110216;1240;69166;-65
2023/11/09 05:07:36;;;;;;;13.60;9.80;;;;;;;1.70;100.00;97692.14;110244;1242;69785;-65
2023/11/09 05:10:07;;;;;;;11.40;7.00;;;;;;;1.73;100.00;97693.58;110258;1244;60625;-65
2023/11/09 05:12:38;;;;;;;8.90;5.90;;;;;;;1.75;100.00;97697.11;110269;1242;60437;-65
2023/11/09 05:15:08;;;;;;;7.20;5.60;;;;;;;1.80;100.00;97696.94;110226;1240;72817;-65
2023/11/09 05:17:39;;;;;;;11.00;5.90;;;;;;;1.93;100.00;97694.45;110234;1242;69093;-65
2023/11/09 05:20:11;;;;;;;;;;;;;;;1.98;100.00;97701.33;110228;1242;69284;-65
2023/11/09 05:22:40;;;;;;;9.30;6.30;;;;;;;2.05;100.00;97703.49;110233;1242;60454;-65
2023/11/09 05:25:12;;;;;;;11.10;7.30;;;;;;;2.11;100.00;97703.65;110225;1243;60483;-65
2023/11/09 05:27:41;;;;;;;12.40;7.80;;;;;;;2.10;100.00;97706.45;110228;1242;71174;-65
2023/11/09 05:30:11;;;;;;;8.80;6.50;;;;;;;2.13;100.00;97710.13;110222;1242;68782;-66
2023/11/09 05:32:41;;;;;;;11.60;7.80;;;;;;;2.20;100.00;97716.23;110251;1240;68848;-65
2023/11/09 05:35:11;;;;;;;;;;;;;;;2.33;100.00;97719.38;110273;1242;60485;-66
2023/11/09 05:37:41;;;;;;;9.80;6.00;;;;;;;2.43;100.00;97719.73;110236;1246;60603;-66
2023/11/09 05:40:10;;;;;;;10.00;6.40;;;;;;;2.49;100.00;97726.05;110253;1242;72090;-66
2023/11/09 05:42:43;;;;;;;7.50;5.30;;;;;;;2.55;100.00;97734.80;110213;1241;69209;-66
2023/11/09 05:45:13;;;;;;;12.90;8.00;;;;;;;2.61;100.00;97739.38;110298;1242;68318;-66
2023/11/09 05:47:43;;;;;;;11.80;8.70;;;;;;;2.65;100.00;97747.19;110264;1242;60534;-65
2023/11/09 05:50:13;;;;;;;9.60;6.60;;;;;;;2.68;100.00;97745.36;110110;1240;60951;-65
2023/11/09 05:52:42;;;;;;;7.90;5.50;;;;;;;2.70;100.00;97744.06;110239;1244;72231;-65
2023/11/09 05:55:11;;;;;;;8.90;5.60;;;;;;;2.73;100.00;97751.35;110199;1240;68203;-65
2023/11/09 05:57:41;;;;;;;9.10;5.90;;;;;;;2.78;100.00;97752.36;110233;1242;68462;-66
2023/11/09 06:00:13;;;;;;;8.40;5.50;;;;;;;2.83;100.00;97756.33;110271;1241;60592;-65
2023/11/09 06:02:43;;;;;;;8.50;5.80;;;;;;;2.87;100.00;97757.05;110271;1242;60947;-66
2023/11/09 06:05:13;;;;;;;10.10;6.40;;;;;;;2.92;100.00;97754.95;110267;1242;71557;-66
2023/11/09 06:07:42;;;;;;;12.00;7.00;;;;;;;2.98;100.00;97758.36;110239;1242;68657;-66
2023/11/09 06:10:13;;;;;;;7.90;5.80;;;;;;;3.05;100.00;97760.35;110226;1242;67397;-66
2023/11/09 06:12:42;;;;;;;6.20;4.80;;;;;;;3.11;100.00;97763.23;110228;1242;60504;-65
2023/11/09 06:15:15;;;;;;;7.20;5.30;;;;;;;3.17;100.00;97761.11;110277;1242;60482;-66
2023/11/09 06:17:47;;;;;;;7.80;6.10;;;;;;;3.24;100.00;97762.91;110262;1244;72831;-65
2023/11/09 06:20:17;;;;;;;7.90;6.10;;;;;;;3.28;100.00;97768.08;110233;1241;69902;-65
2023/11/09 06:22:46;;;;;;;11.80;7.30;;;;;;;3.31;100.00;97767.64;110166;1243;70060;-65
2023/11/09 06:25:15;;;;;;;13.40;9.40;;;;;;;3.35;100.00;97771.30;110258;1240;60560;-65
2023/11/09 06:27:45;;;;;;;12.70;8.90;;;;;;;3.38;100.00;97774.77;110280;1250;60541;-65
2023/11/09 06:30:14;;;;;;;15.10;11.40;;;;;;;3.45;100.00;97779.14;110281;1245;72745;-65
2023/11/09 06:32:43;;;;;;;10.50;7.80;;;;;;;3.53;100.00;97781.60;110247;1242;69883;-65
2023/11/09 06:35:13;;;;;;;13.20;8.80;;;;;;;3.61;100.00;97785.98;110282;1241;69856;-65
2023/11/09 06:37:45;;;;;;;11.10;7.60;;;;;;;3.69;100.00;97783.25;110247;1241;60544;-65
2023/11/09 06:40:16;;;;;;;11.60;8.00;;;;;;;3.77;100.00;97785.50;110284;1244;60423;-66
2023/11/09 06:42:50;;;;;;;11.70;7.20;;;;;;;3.83;100.00;97782.69;110310;1240;72216;-65
2023/11/09 06:45:19;;;;;;;9.20;6.60;;;;;;;3.92;100.00;97787.14;110243;1240;69277;-65
2023/11/09 06:47:51;;;;;;;8.80;5.90;;;;;;;4.01;100.00;97787.49;110291;1240;69317;-65
2023/11/09 06:50:21;;;;;;;7.30;5.50;;;;;;;4.09;100.00;97792.83;110220;1242;60566;-64
2023/11/09 06:52:55;;;;;;;11.30;7.30;;;;;;;4.20;100.00;97793.76;110238;1242;60431;-64
2023/11/09 06:55:25;;;;;;;15.20;10.10;;;;;;;4.35;100.00;97796.10;110233;1240;72170;-64
2023/11/09 06:57:54;;;;;;;10.20;8.50;;;;;;;4.40;100.00;97798.10;110287;1242;69306;-64
2023/11/09 07:00:26;;;;;;;12.60;9.20;;;;;;;4.48;100.00;97796.92;110221;1242;69255;-66
2023/11/09 07:02:58;;;;;;;11.70;8.40;;;;;;;4.54;100.00;97798.89;110261;1242;60437;-65
2023/11/09 07:05:27;;;;;;;15.00;11.40;;;;;;;4.54;100.00;97803.92;110370;1241;60480;-65
2023/11/09 07:07:57;;;;;;;16.20;11.20;;;;;;;4.53;100.00;97809.27;110383;1240;73238;-67
2023/11/09 07:10:28;;;;;;;14.50;9.70;;;;;;;4.54;100.00;97806.17;110520;1239;68537;-64
2023/11/09 07:12:57;;;;;;;10.60;8.80;;;;;;;4.56;100.00;97808.65;110632;1241;69207;-66
2023/11/09 07:15:27;;;;;;;11.90;9.30;;;;;;;4.58;100.00;97808.90;110319;1241;60483;-65
2023/11/09 07:17:57;;;;;;;13.00;8.20;;;;;;;4.69;100.00;97811.04;110456;1242;60486;-65
2023/11/09 07:20:27;;;;;;;8.50;6.60;;;;;;;4.90;100.00;97809.10;110358;1240;71782;-65
2023/11/09 07:23:00;;;;;;;8.00;6.20;;;;;;;5.13;100.00;97807.73;110297;1241;69428;-64
2023/11/09 07:25:31;;;;;;;7.40;6.00;;;;;;;5.59;100.00;97812.41;110289;1242;69880;-65
2023/11/09 07:28:00;;;;;;;5.70;4.60;;;;;;;6.34;100.00;97809.85;110350;1241;60535;-64
2023/11/09 07:30:32;;;;;;;6.60;4.50;;;;;;;7.15;100.00;97810.24;110285;1240;60498;-64
2023/11/09 07:33:04;;;;;;;6.90;6.00;;;;;;;7.97;100.00;97813.77;110329;1242;72729;-64
2023/11/09 07:35:35;;;;;;;9.10;7.10;;;;;;;8.77;95.51;97809.18;110457;1241;68564;-65
2023/11/09 07:38:04;;;;;;;8.80;7.20;;;;;;;9.54;88.89;97811.28;110366;1240;69155;-64
2023/11/09 07:40:34;;;;;;;9.30;7.50;;;;;;;9.95;82.57;97812.54;110230;1242;60504;-64
2023/11/09 07:43:03;;;;;;;7.30;5.50;;;;;;;10.55;81.86;97814.74;110271;1242;60435;-64
2023/11/09 07:45:32;;;;;;;9.40;6.70;;;;;;;11.18;74.91;97816.45;110268;1242;70668;-64
2023/11/09 07:48:05;;;;;;;6.50;5.00;;;;;;;11.73;76.88;97819.05;110395;1244;69059;-64
2023/11/09 07:50:35;;;;;;;7.00;5.00;;;;;;;11.95;69.59;97819.96;110273;1243;69357;-64
2023/11/09 07:53:05;;;;;;;6.80;5.00;;;;;;;12.33;71.64;97818.57;110299;1242;60539;-65
2023/11/09 07:55:35;;;;;;;4.70;3.90;;;;;;;13.02;69.42;97813.09;110520;1240;60465;-65
2023/11/09 07:58:05;;;;;;;5.80;4.10;;;;;;;13.56;68.05;97815.06;110381;1240;72291;-66
2023/11/09 08:00:34;;;;;;;;;;;;;;;14.11;69.30;97814.30;110472;1242;68306;-66
2023/11/09 08:03:03;;;;;;;4.60;3.40;;;;;;;14.37;63.45;97813.44;110355;1242;69334;-64
2023/11/09 08:05:37;;;;;;;4.50;3.30;;;;;;;14.52;61.78;97812.81;110442;1242;60469;-65
2023/11/09 08:08:10;;;;;;;4.20;3.10;;;;;;;14.82;60.16;97812.45;110549;1241;60428;-65
2023/11/09 08:10:44;;;;;;;3.60;3.30;;;;;;;14.79;57.29;97810.02;110427;1242;71455;-65
2023/11/09 08:13:13;;;;;;;3.80;2.60;;;;;;;15.01;59.47;97807.48;110437;1241;69843;-65
2023/11/09 08:15:42;;;;;;;3.10;2.40;;;;;;;15.30;55.49;97803.21;110472;1240;69871;-63
2023/11/09 08:18:14;;;;;;;4.00;2.80;;;;;;;15.68;51.90;97807.32;110393;1241;60436;-67
2023/11/09 08:20:44;;;;;;;3.70;2.70;;;;;;;15.23;51.70;97804.89;110436;1241;60485;-65
2023/11/09 08:23:13;;;;;;;4.80;2.30;;;;;;;15.94;53.63;97807.67;110453;1240;72162;-64
2023/11/09 08:25:43;;;;;;;3.20;2.30;;;;;;;16.67;54.43;97810.64;110471;1242;69220;-65
2023/11/09 08:28:16;;;;;;;3.40;2.70;;;;;;;17.00;49.51;97808.48;110483;1241;68466;-65
2023/11/09 08:30:46;;;;;;;3.80;2.60;;;;;;;17.32;50.78;97810.59;110515;1239;60476;-64
2023/11/09 08:33:21;;;;;;;3.60;2.40;;;;;;;17.83;50.13;97813.94;110417;1240;60515;-64
2023/11/09 08:35:53;;;;;;;2.70;2.10;;;;;;;18.32;47.48;97810.77;110432;1240;72784;-63
2023/11/09 08:38:23;;;;;;;3.40;1.60;;;;;;;18.81;51.05;97811.55;110521;1241;69716;-64
2023/11/09 08:40:52;;;;;;;3.80;2.40;;;;;;;18.56;47.11;97808.73;110488;1241;69853;-64
2023/11/09 08:43:21;;;;;;;2.60;1.80;;;;;;;18.63;47.73;97814.89;110482;1241;60528;-64
2023/11/09 08:45:51;;;;;;;;;;;;;;;18.64;45.90;97814.46;110446;1241;60451;-64
2023/11/09 08:48:20;;;;;;;3.00;1.80;;;;;;;18.50;44.42;97813.76;110390;1241;71414;-65
2023/11/09 08:50:50;;;;;;;;;;;;;;;18.02;44.80;97814.34;110494;1242;69688;-64
2023/11/09 08:53:21;;;;;;;3.60;2.30;;;;;;;18.24;44.42;97815.12;110458;1240;68233;-65
2023/11/09 08:55:50;;;;;;;2.60;1.70;;;;;;;18.03;42.34;97816.03;110479;1241;60506;-63
2023/11/09 08:58:19;;;;;;;2.80;1.90;;;;;;;17.88;43.68;97816.75;110393;1239;60516;-65
2023/11/09 09:00:49;;;;;;;2.50;1.70;;;;;;;17.77;44.62;97815.19;110346;1241;72191;-66
2023/11/09 09:03:19;;;;;;;2.00;1.30;;;;;;;17.49;45.00;97816.59;110434;1242;69232;-65
2023/11/09 09:05:48;;;;;;;2.50;1.70;;;;;;;16.44;43.51;97820.48;110309;1241;70352;-66
2023/11/09 09:08:18;;;;;;;2.60;1.90;;;;;;;16.04;45.07;97821.94;110393;1241;60928;-66
2023/11/09 09:10:48;;;;;;;2.40;1.40;;;;;;;16.06;45.54;97826.28;110410;1241;60525;-65
2023/11/09 09:13:20;;;;;;;2.60;1.40;;;;;;;15.99;45.96;97822.20;110437;1241;71625;-64
2023/11/09 09:15:53;;;;;;;2.00;1.10;;;;;;;15.50;43.77;97820.09;110376;1240;69714;-64
2023/11/09 09:18:24;;;;;;;1.40;1.20;;;;;;;14.73;43.92;97821.92;110432;1240;69268;-64
2023/11/09 09:20:53;;;;;;;2.20;1.20;;;;;;;14.75;46.34;97820.02;102594;1248;10210230;-64
2023/11/09 09:23:22;;;;;;;1.90;1.10;;;;;;;14.79;47.38;97817.77;110487;1241;72110;-64
2023/11/09 09:25:53;;;;;;;1.90;1.40;;;;;;;14.70;47.24;97817.22;110487;1241;70024;-64
2023/11/09 09:28:22;;;;;;;2.40;1.60;;;;;;;14.35;46.49;97815.52;110365;1242;69865;-64
2023/11/09 09:30:52;;;;;;;3.70;1.60;;;;;;;14.12;47.96;97812.34;110388;1241;60508;-63
2023/11/09 09:33:22;;;;;;;3.70;1.50;;;;;;;14.34;48.46;97809.19;110417;1240;60543;-62
2023/11/09 09:35:52;;;;;;;2.60;1.40;;;;;;;14.91;48.75;97808.95;110541;1243;71724;-64
2023/11/09 09:38:23;;;;;;;2.10;1.30;;;;;;;15.55;45.94;97803.04;110460;1240;68652;-64
2023/11/09 09:40:54;;;;;;;2.40;1.40;;;;;;;15.84;44.88;97806.80;110469;1241;69165;-63
2023/11/09 09:43:24;;;;;;;2.20;1.40;;;;;;;16.16;45.02;97809.09;110348;1241;61008;-63
2023/11/09 09:45:57;;;;;;;3.90;1.90;;;;;;;16.34;44.11;97805.35;110364;1241;60471;-63
2023/11/09 09:48:28;;;;;;;3.00;1.80;;;;;;;16.64;44.12;97805.62;110427;1243;72230;-62
2023/11/09 09:50:58;;;;;;;3.90;1.90;;;;;;;16.91;44.59;97803.50;110393;1241;68480;-62
2023/11/09 09:53:30;;;;;;;3.40;1.70;;;;;;;16.79;43.15;97806.52;110468;1242;68438;-62
2023/11/09 09:56:01;;;;;;;2.60;1.50;;;;;;;16.41;43.02;97807.19;110399;1239;60479;-65
2023/11/09 09:58:35;;;;;;;1.50;1.30;;;;;;;16.32;42.91;97806.57;110431;1241;60469;-65
2023/11/09 10:01:04;;;;;;;2.10;1.50;;;;;;;15.48;42.69;97799.59;110359;1242;72009;-66
2023/11/09 10:03:34;;;;;;;2.30;1.40;;;;;;;15.34;44.62;97797.45;110442;1241;69762;-64
2023/11/09 10:06:06;;;;;;;3.40;1.60;;;;;;;15.10;45.36;97800.17;110484;1241;68543;-65
2023/11/09 10:08:36;;;;;;;2.00;1.40;;;;;;;15.05;45.63;97796.61;110524;1242;60543;-65
2023/11/09 10:11:05;;;;;;;2.80;1.60;;;;;;;15.57;44.96;97793.13;110548;1241;60455;-65
2023/11/09 10:13:42;;;;;;;2.10;1.40;;;;;;;16.46;41.76;97794.92;110470;1239;72792;-65
2023/11/09 10:16:14;;;;;;;2.00;1.40;;;;;;;17.21;40.48;97787.71;110459;1241;69376;-65
2023/11/09 10:18:43;;;;;;;3.00;1.30;;;;;;;18.33;41.12;97784.66;110503;1241;67836;-65
2023/11/09 10:21:17;;;;;;;4.40;1.50;;;;;;;18.96;39.29;97781.70;110539;1242;60476;-64
2023/11/09 10:23:53;;;;;;;3.60;1.30;;;;;;;19.38;40.07;97779.17;110512;1244;60952;-65
2023/11/09 10:26:34;;;;;;;2.50;1.40;;;;;;;20.90;40.14;97772.59;110296;1244;72742;-65
2023/11/09 10:29:05;;;;;;;2.10;1.40;;;;;;;21.44;34.39;97768.84;110325;1241;69866;-66
2023/11/09 10:31:34;;;;;;;2.40;1.10;;;;;;;21.88;33.29;97767.10;110346;1240;68960;-63
2023/11/09 10:34:04;;;;;;;3.10;1.40;;;;;;;22.25;33.03;97766.40;110351;1241;60519;-65
2023/11/09 10:36:34;;;;;;;1.70;1.20;;;;;;;22.22;31.88;97767.09;110453;1250;60538;-64
2023/11/09 10:39:24;;;;;;;1.90;1.20;;;;;;;19.83;32.99;97763.23;110429;1241;72741;-64
2023/11/09 10:41:54;;;;;;;2.40;1.40;;;;;;;20.61;33.74;97768.09;110405;1242;68481;-64
2023/11/09 10:44:31;;;;;;;2.10;1.30;;;;;;;21.35;33.34;97759.71;110454;1241;69865;-65
2023/11/09 10:47:01;;;;;;;2.60;1.40;;;;;;;21.21;33.70;97755.83;110472;1241;60531;-63
2023/11/09 10:49:43;;;;;;;3.00;1.90;;;;;;;21.00;34.01;97751.55;110424;1249;60492;-64
2023/11/09 10:52:19;;;;;;;3.00;1.50;;;;;;;21.46;34.21;97750.70;110485;1243;72211;-64
2023/11/09 10:54:56;;;;;;;1.90;1.40;;;;;;;22.09;31.94;97748.19;110524;1241;69162;-64
2023/11/09 10:57:26;;;;;;;2.10;1.10;;;;;;;21.81;32.66;97743.09;110337;1241;70024;-64
2023/11/09 10:59:56;;;;;;;2.80;1.20;;;;;;;22.17;33.49;97744.21;110472;1242;60545;-65
2023/11/09 11:02:28;;;;;;;1.80;1.20;;;;;;;22.58;32.31;97741.50;110544;1241;60474;-64
2023/11/09 11:05:03;;;;;;;1.40;0.90;;;;;;;22.09;32.33;97737.08;110498;1242;73105;-65
2023/11/09 11:07:37;;;;;;;1.60;1.10;;;;;;;21.60;33.16;97735.89;110409;1242;69325;-64
2023/11/09 11:10:16;;;;;;;1.60;1.00;;;;;;;20.91;34.11;97736.13;110455;1248;69879;-65
2023/11/09 11:12:49;;;;;;;1.90;1.20;;;;;;;21.64;33.62;97738.21;110491;1242;60461;-63
2023/11/09 11:15:27;;;;;;;2.10;1.00;;;;;;;21.98;32.45;97740.74;110346;1249;60604;-64
2023/11/09 11:18:26;;;;;;;2.20;1.30;;;;;;;21.18;32.28;97742.54;110369;1241;73109;-63
2023/11/09 11:21:33;;;;;;;2.20;1.00;;;;;;;22.34;30.65;97749.79;110493;1243;69774;-66
2023/11/09 11:24:39;;;;;;;2.00;1.00;;;;;;;22.73;31.00;97755.20;110340;1247;69850;-63
2023/11/09 11:27:16;;;;;;;1.80;1.40;;;;;;;23.58;29.82;97749.11;110343;1244;60544;-64
2023/11/09 11:29:50;;;;;;;3.30;1.50;;;;;;;22.96;28.91;97747.33;110530;1242;60482;-63
2023/11/09 11:32:38;;;;;;;2.20;1.20;;;;;;;22.80;29.25;97748.28;110415;1242;72153;-64
2023/11/09 11:35:11;;;;;;;2.00;1.20;;;;;;;22.72;29.40;97748.72;110317;1241;69872;-62
2023/11/09 11:37:40;;;;;;;1.90;1.10;;;;;;;22.94;29.33;97749.00;110376;1242;69333;-64
2023/11/09 11:40:10;;;;;;;2.00;1.10;;;;;;;23.03;28.39;97748.47;110315;1241;60561;-64
2023/11/09 11:42:39;;;;;;;2.70;1.20;;;;;;;22.94;28.41;97743.08;110355;1242;60540;-64
2023/11/09 11:45:11;;;;;;;3.30;1.20;;;;;;;23.05;28.89;97743.27;110395;1245;72758;-65
2023/11/09 11:47:45;;;;;;;2.80;1.40;;;;;;;23.32;28.82;97740.54;110472;1241;69712;-64
2023/11/09 11:50:16;;;;;;;1.60;0.90;;;;;;;24.05;28.40;97746.02;110359;1242;69183;-63
2023/11/09 11:52:48;;;;;;;2.30;1.40;;;;;;;23.73;28.40;97742.90;110496;1249;60524;-63
2023/11/09 11:55:20;;;;;;;4.10;2.00;;;;;;;24.22;28.45;97744.30;110482;1244;60490;-63
2023/11/09 11:58:19;;;;;;;2.40;1.80;;;;;;;24.54;28.47;97738.06;110387;1242;71449;-65